Time;durP1;ratioP1;P1;durP2;ratioP2;P2;SDS_P1;SDS_P2;PMS_P1;PMS_P2;Temp;Humidity;BMP_temperature;BMP_pressure;BME280_temperature;BME280_humidity;BME280_pressure;Samples;Min_cycle;Max_cycle;Signal;HPM_P1;HPM_P2
2023/04/06 00:00:00;;;;;;;6.63;2.80;;;2.80;99.90;;;;;;4163633;28;20639;-60
2023/04/06 00:02:01;;;;;;;4.80;3.20;;;2.80;99.90;;;;;;4149956;28;20291;-59
2023/04/06 00:04:02;;;;;;;4.73;3.23;;;2.80;99.90;;;;;;4147581;28;20675;-59
2023/04/06 00:06:04;;;;;;;4.70;3.13;;;2.80;99.90;;;;;;4146173;28;20267;-62
2023/04/06 00:08:05;;;;;;;6.17;3.10;;;2.70;99.90;;;;;;4147826;28;20333;-60
2023/04/06 00:10:07;;;;;;;5.17;3.07;;;2.70;99.90;;;;;;4145852;28;20310;-59
2023/04/06 00:12:08;;;;;;;4.57;2.57;;;2.70;99.90;;;;;;4147496;28;20810;-61
2023/04/06 00:14:09;;;;;;;4.13;2.93;;;2.70;99.90;;;;;;4146411;28;20362;-58
2023/04/06 00:16:11;;;;;;;5.83;2.80;;;2.70;99.90;;;;;;4146889;28;20333;-59
2023/04/06 00:18:12;;;;;;;3.00;2.33;;;2.60;99.90;;;;;;4145618;28;20263;-60
2023/04/06 00:20:13;;;;;;;7.97;3.30;;;2.60;99.90;;;;;;4155455;28;20312;-60
2023/04/06 00:22:14;;;;;;;4.57;3.30;;;2.60;99.90;;;;;;4163248;28;20287;-59
2023/04/06 00:24:15;;;;;;;4.90;3.60;;;2.60;99.90;;;;;;4162394;28;20263;-60
2023/04/06 00:26:16;;;;;;;4.40;2.60;;;2.60;99.90;;;;;;4149327;28;20272;-60
2023/04/06 00:28:21;;;;;;;5.17;2.53;;;2.50;99.90;;;;;;4145681;28;20298;-57
2023/04/06 00:30:22;;;;;;;5.20;3.17;;;2.50;99.90;;;;;;4153187;28;20840;-63
2023/04/06 00:32:23;;;;;;;4.20;2.87;;;2.40;99.90;;;;;;4145657;28;20276;-58
2023/04/06 00:34:25;;;;;;;4.77;2.80;;;2.50;99.90;;;;;;4154341;28;20340;-61
2023/04/06 00:36:26;;;;;;;3.63;2.47;;;2.40;99.90;;;;;;4152284;28;20271;-63
2023/04/06 00:38:27;;;;;;;6.53;3.00;;;2.40;99.90;;;;;;4146864;28;20306;-60
2023/04/06 00:40:28;;;;;;;3.33;2.50;;;2.40;99.90;;;;;;4145525;28;20264;-60
2023/04/06 00:42:30;;;;;;;4.47;2.73;;;2.40;99.90;;;;;;4146735;28;20345;-62
2023/04/06 00:44:31;;;;;;;6.33;2.70;;;2.30;99.90;;;;;;4145269;28;20334;-60
2023/04/06 00:46:32;;;;;;;5.33;3.10;;;2.30;99.90;;;;;;4146461;28;20345;-60
2023/04/06 00:48:34;;;;;;;5.73;3.13;;;2.30;99.90;;;;;;4145982;28;20263;-60
2023/04/06 00:50:35;;;;;;;4.77;2.70;;;2.30;99.90;;;;;;4146908;28;20756;-60
2023/04/06 00:52:36;;;;;;;4.47;2.47;;;2.20;99.90;;;;;;4146273;28;20649;-62
2023/04/06 00:54:37;;;;;;;4.30;2.90;;;2.20;99.90;;;;;;4145539;28;20272;-60
2023/04/06 00:56:39;;;;;;;5.50;2.97;;;2.20;99.90;;;;;;4146632;28;20255;-60
2023/04/06 00:58:40;;;;;;;4.40;3.20;;;2.20;99.90;;;;;;4145254;28;20342;-65
2023/04/06 01:00:42;;;;;;;4.80;2.77;;;2.20;99.90;;;;;;4146874;28;20267;-61
2023/04/06 01:02:45;;;;;;;6.40;2.90;;;2.10;99.90;;;;;;4145122;28;20763;-60
2023/04/06 01:04:46;;;;;;;3.53;2.60;;;2.10;99.90;;;;;;4157578;28;20282;-61
2023/04/06 01:06:47;;;;;;;4.57;2.23;;;2.10;99.90;;;;;;4161992;28;20742;-60
2023/04/06 01:08:48;;;;;;;3.73;2.57;;;2.10;99.90;;;;;;4162818;28;20336;-62
2023/04/06 01:10:49;;;;;;;4.80;3.53;;;2.10;99.90;;;;;;4161492;28;20263;-60
2023/04/06 01:12:51;;;;;;;4.10;3.40;;;2.00;99.90;;;;;;4162150;28;20313;-63
2023/04/06 01:14:52;;;;;;;4.77;2.93;;;2.00;99.90;;;;;;4156765;28;20703;-59
2023/04/06 01:16:53;;;;;;;6.20;2.47;;;2.00;99.90;;;;;;4146226;28;20671;-64
2023/04/06 01:18:54;;;;;;;5.43;2.93;;;2.00;99.90;;;;;;4148932;28;20804;-58
2023/04/06 01:20:56;;;;;;;4.50;2.67;;;2.00;99.90;;;;;;4155175;28;20283;-59
2023/04/06 01:22:57;;;;;;;3.27;2.37;;;2.00;99.90;;;;;;4161216;28;20689;-58
2023/04/06 01:24:58;;;;;;;5.33;3.03;;;2.00;99.90;;;;;;4160844;28;20263;-61
2023/04/06 01:27:00;;;;;;;3.77;2.67;;;2.00;99.90;;;;;;4160812;28;20317;-58
2023/04/06 01:29:03;;;;;;;4.50;2.67;;;2.00;99.90;;;;;;4161339;28;20301;-58
2023/04/06 01:31:06;;;;;;;5.37;3.20;;;2.00;99.90;;;;;;4162608;28;20321;-59
2023/04/06 01:33:07;;;;;;;5.33;2.93;;;1.90;99.90;;;;;;4160745;28;20259;-60
2023/04/06 01:35:08;;;;;;;5.47;3.17;;;1.90;99.90;;;;;;4162389;28;20258;-59
2023/04/06 01:37:10;;;;;;;5.90;2.80;;;1.90;99.90;;;;;;4161542;28;20341;-61
2023/04/06 01:39:11;;;;;;;4.53;3.27;;;1.90;99.90;;;;;;4162091;28;20317;-61
2023/04/06 01:41:12;;;;;;;4.87;2.77;;;1.80;99.90;;;;;;4160802;28;20285;-59
2023/04/06 01:43:13;;;;;;;5.27;2.90;;;1.90;99.90;;;;;;4147651;28;20303;-60
2023/04/06 01:45:14;;;;;;;3.63;2.87;;;1.90;99.90;;;;;;4144697;28;20325;-59
2023/04/06 01:47:15;;;;;;;5.17;2.83;;;1.90;99.90;;;;;;4151480;28;20328;-64
2023/04/06 01:49:17;;;;;;;3.67;3.03;;;1.90;99.90;;;;;;4159228;28;20669;-61
2023/04/06 01:51:18;;;;;;;3.77;2.70;;;1.90;99.90;;;;;;4161585;28;20781;-59
2023/04/06 01:53:19;;;;;;;5.43;2.80;;;1.80;99.90;;;;;;4161581;28;20277;-60
2023/04/06 01:55:20;;;;;;;5.93;2.67;;;1.80;99.90;;;;;;4145711;28;20814;-60
2023/04/06 01:57:22;;;;;;;5.57;2.70;;;1.80;99.90;;;;;;4144316;28;20264;-59
2023/04/06 01:59:23;;;;;;;4.43;2.97;;;1.80;99.90;;;;;;4144168;28;20811;-59
2023/04/06 02:01:24;;;;;;;4.00;2.70;;;1.80;99.90;;;;;;4145660;28;20263;-56
2023/04/06 02:03:25;;;;;;;5.83;3.03;;;1.80;99.90;;;;;;4144457;28;20724;-58
2023/04/06 02:05:26;;;;;;;6.00;2.73;;;1.80;99.90;;;;;;4145620;28;20267;-60
2023/04/06 02:07:27;;;;;;;4.57;2.97;;;1.80;99.90;;;;;;4144523;28;20314;-60
2023/04/06 02:09:29;;;;;;;4.10;3.20;;;1.80;99.90;;;;;;4145246;28;20327;-65
2023/04/06 02:11:30;;;;;;;3.50;2.70;;;1.80;99.90;;;;;;4143940;28;20271;-58
2023/04/06 02:13:31;;;;;;;4.03;2.90;;;1.80;99.90;;;;;;4145652;28;20790;-60
2023/04/06 02:15:32;;;;;;;3.27;2.57;;;1.80;99.90;;;;;;4144009;28;20284;-60
2023/04/06 02:17:34;;;;;;;4.87;3.13;;;1.80;99.90;;;;;;4145701;28;20309;-60
2023/04/06 02:19:35;;;;;;;9.80;3.63;;;1.70;99.90;;;;;;4144335;28;20322;-60
2023/04/06 02:21:36;;;;;;;5.60;2.83;;;1.70;99.90;;;;;;4146709;28;20278;-65
2023/04/06 02:23:37;;;;;;;4.30;3.30;;;1.70;99.90;;;;;;4149319;28;20279;-62
2023/04/06 02:25:38;;;;;;;4.80;2.90;;;1.70;99.90;;;;;;4153257;28;20362;-59
2023/04/06 02:27:39;;;;;;;5.13;2.80;;;1.70;99.90;;;;;;4157675;28;20263;-61
2023/04/06 02:29:41;;;;;;;6.53;3.20;;;1.70;99.90;;;;;;4160326;28;20270;-60
2023/04/06 02:31:42;;;;;;;6.30;3.60;;;1.60;99.90;;;;;;4158391;28;20336;-58
2023/04/06 02:33:43;;;;;;;8.27;3.60;;;1.70;99.90;;;;;;4152880;28;20619;-58
2023/04/06 02:35:45;;;;;;;7.60;2.90;;;1.70;99.90;;;;;;4145054;28;20279;-60
2023/04/06 02:37:47;;;;;;;4.23;3.03;;;1.60;99.90;;;;;;4159329;28;20282;-60
2023/04/06 02:39:48;;;;;;;5.43;2.73;;;1.60;99.90;;;;;;4161729;28;20305;-60
2023/04/06 02:41:49;;;;;;;3.73;2.87;;;1.60;99.90;;;;;;4160025;28;20306;-60
2023/04/06 02:43:50;;;;;;;6.00;3.30;;;1.60;99.90;;;;;;4160983;28;20822;-60
2023/04/06 02:45:51;;;;;;;4.53;3.00;;;1.60;99.90;;;;;;4160079;28;20266;-62
2023/04/06 02:47:53;;;;;;;5.43;2.70;;;1.60;99.90;;;;;;4161402;28;20270;-59
2023/04/06 02:49:54;;;;;;;5.13;3.10;;;1.60;99.90;;;;;;4156751;28;20802;-58
2023/04/06 02:51:55;;;;;;;3.97;2.93;;;1.60;99.90;;;;;;4161037;28;20259;-61
2023/04/06 02:53:56;;;;;;;4.33;2.77;;;1.50;99.90;;;;;;4160469;28;20262;-59
2023/04/06 02:55:57;;;;;;;5.17;3.27;;;1.50;99.90;;;;;;4160442;28;20325;-60
2023/04/06 02:57:59;;;;;;;6.87;4.17;;;1.50;99.90;;;;;;4160734;28;20275;-59
2023/04/06 03:00:00;;;;;;;4.53;2.67;;;1.50;99.90;;;;;;4159505;28;20259;-59
2023/04/06 03:02:01;;;;;;;5.23;3.27;;;1.50;99.90;;;;;;4153097;28;20370;-56
2023/04/06 03:04:02;;;;;;;6.77;3.60;;;1.50;99.90;;;;;;4144505;28;20271;-59
2023/04/06 03:06:04;;;;;;;5.00;3.03;;;1.50;99.90;;;;;;4157052;28;20279;-60
2023/04/06 03:08:05;;;;;;;5.07;3.40;;;1.50;99.90;;;;;;4146904;28;20291;-66
2023/04/06 03:10:07;;;;;;;6.53;3.40;;;1.60;99.90;;;;;;4143564;28;20326;-60
2023/04/06 03:12:08;;;;;;;4.50;3.03;;;1.50;99.90;;;;;;4143500;28;20271;-60
2023/04/06 03:14:09;;;;;;;6.70;3.63;;;1.50;99.90;;;;;;4144809;28;20336;-58
2023/04/06 03:16:10;;;;;;;4.97;3.00;;;1.50;99.90;;;;;;4142983;28;20291;-61
2023/04/06 03:18:12;;;;;;;6.63;3.33;;;1.50;99.90;;;;;;4144545;28;20322;-66
2023/04/06 03:20:13;;;;;;;7.73;3.93;;;1.50;99.90;;;;;;4143426;28;20275;-61
2023/04/06 03:22:14;;;;;;;5.00;3.53;;;1.50;99.90;;;;;;4144256;28;20707;-61
2023/04/06 03:24:15;;;;;;;5.27;3.20;;;1.50;99.90;;;;;;4152586;28;20262;-60
2023/04/06 03:26:17;;;;;;;5.13;2.80;;;1.40;99.90;;;;;;4160044;28;20999;-60
2023/04/06 03:28:18;;;;;;;5.87;3.83;;;1.40;99.90;;;;;;4158632;28;20274;-60
2023/04/06 03:30:19;;;;;;;5.63;3.70;;;1.40;99.90;;;;;;4156325;28;20333;-60
2023/04/06 03:32:21;;;;;;;5.53;3.40;;;1.50;99.90;;;;;;4160780;28;20275;-60
2023/04/06 03:34:22;;;;;;;5.20;3.33;;;1.50;99.90;;;;;;4159565;28;20321;-61
2023/04/06 03:36:23;;;;;;;8.13;3.50;;;1.50;99.90;;;;;;4160715;28;20275;-58
2023/04/06 03:38:24;;;;;;;6.57;3.50;;;1.50;99.90;;;;;;4159911;28;20666;-60
2023/04/06 03:40:25;;;;;;;6.17;3.97;;;1.50;99.90;;;;;;4160384;28;20275;-59
2023/04/06 03:42:27;;;;;;;5.47;3.57;;;1.50;99.90;;;;;;4159150;28;20357;-59
2023/04/06 03:44:28;;;;;;;6.77;3.33;;;1.40;99.90;;;;;;4160754;28;20309;-60
2023/04/06 03:46:29;;;;;;;6.97;3.80;;;1.40;99.90;;;;;;4157593;28;20353;-59
2023/04/06 03:48:31;;;;;;;8.67;3.30;;;1.40;99.90;;;;;;4158304;28;20271;-58
2023/04/06 03:50:32;;;;;;;7.90;4.00;;;1.40;99.90;;;;;;4155806;28;20320;-58
2023/04/06 03:52:34;;;;;;;6.43;3.27;;;1.40;99.90;;;;;;4160076;28;20788;-65
2023/04/06 03:54:36;;;;;;;8.13;4.00;;;1.40;99.90;;;;;;4157899;28;20270;-59
2023/04/06 03:56:37;;;;;;;5.97;3.60;;;1.40;99.90;;;;;;4154793;28;20278;-60
2023/04/06 03:58:38;;;;;;;10.63;5.80;;;1.30;99.90;;;;;;4160069;28;20285;-60
2023/04/06 04:00:39;;;;;;;9.40;5.60;;;1.40;99.90;;;;;;4159515;28;20340;-61
2023/04/06 04:02:40;;;;;;;7.17;4.77;;;1.30;99.90;;;;;;4151185;28;20315;-58
2023/04/06 04:04:42;;;;;;;6.57;3.60;;;1.30;99.90;;;;;;4142144;28;20748;-58
2023/04/06 04:06:43;;;;;;;6.93;4.20;;;1.40;99.90;;;;;;4143984;28;20286;-59
2023/04/06 04:08:44;;;;;;;5.10;3.70;;;1.40;99.90;;;;;;4142838;28;20747;-60
2023/04/06 04:10:45;;;;;;;7.33;4.27;;;1.40;99.90;;;;;;4144041;28;20263;-59
2023/04/06 04:12:46;;;;;;;10.37;5.20;;;1.40;99.90;;;;;;4142672;28;20310;-59
2023/04/06 04:14:47;;;;;;;5.57;3.90;;;1.40;99.90;;;;;;4149663;28;20333;-60
2023/04/06 04:16:49;;;;;;;6.07;3.97;;;1.30;99.90;;;;;;4153196;28;20324;-62
2023/04/06 04:18:50;;;;;;;7.43;4.40;;;1.30;99.90;;;;;;4133579;28;20275;-60
2023/04/06 04:20:52;;;;;;;8.90;4.30;;;1.20;99.90;;;;;;4156853;28;20356;-60
2023/04/06 04:22:53;;;;;;;7.40;4.10;;;1.10;99.90;;;;;;4146747;28;20303;-61
2023/04/06 04:24:54;;;;;;;10.07;4.50;;;1.10;99.90;;;;;;4146993;28;20333;-60
2023/04/06 04:26:56;;;;;;;6.67;4.17;;;1.00;99.90;;;;;;4157066;28;20934;-62
2023/04/06 04:28:57;;;;;;;9.90;4.40;;;0.90;99.90;;;;;;4148318;28;20263;-58
2023/04/06 04:30:58;;;;;;;6.63;3.87;;;0.90;99.90;;;;;;4157772;28;20294;-63
2023/04/06 04:32:59;;;;;;;6.57;3.40;;;0.80;99.90;;;;;;4147513;28;20329;-60
2023/04/06 04:35:01;;;;;;;6.97;4.40;;;0.80;99.90;;;;;;4160127;28;20263;-61
2023/04/06 04:37:02;;;;;;;8.00;4.40;;;0.70;99.90;;;;;;4158026;28;20739;-61
2023/04/06 04:39:03;;;;;;;6.73;3.70;;;0.70;99.90;;;;;;4148388;28;20267;-59
2023/04/06 04:41:04;;;;;;;7.63;4.67;;;0.60;99.90;;;;;;4144513;28;20271;-60
2023/04/06 04:43:05;;;;;;;6.40;3.83;;;0.50;99.90;;;;;;4145188;28;20706;-62
2023/04/06 04:45:07;;;;;;;6.63;4.07;;;0.50;99.90;;;;;;4146662;28;20655;-58
2023/04/06 04:47:08;;;;;;;9.77;5.10;;;0.40;99.90;;;;;;4145275;28;20338;-63
2023/04/06 04:49:09;;;;;;;7.00;4.40;;;0.40;99.90;;;;;;4145415;28;20357;-61
2023/04/06 04:51:11;;;;;;;8.10;4.47;;;0.40;99.90;;;;;;4144299;28;20275;-60
2023/04/06 04:53:12;;;;;;;6.17;4.10;;;0.40;99.90;;;;;;4145629;28;20333;-59
2023/04/06 04:55:13;;;;;;;7.73;4.40;;;0.30;99.90;;;;;;4145440;28;20671;-59
2023/04/06 04:57:15;;;;;;;8.40;4.67;;;0.40;99.90;;;;;;4145982;28;20263;-59
2023/04/06 04:59:16;;;;;;;6.30;4.40;;;0.30;99.90;;;;;;4145721;28;20252;-62
2023/04/06 05:01:17;;;;;;;8.50;5.10;;;0.30;99.90;;;;;;4145315;28;20667;-60
2023/04/06 05:03:22;;;;;;;9.00;4.53;;;0.30;99.90;;;;;;4145478;28;20291;-58
2023/04/06 05:05:24;;;;;;;9.60;5.10;;;0.20;99.90;;;;;;4144907;28;20341;-60
2023/04/06 05:07:25;;;;;;;8.60;5.70;;;0.20;99.90;;;;;;4146495;28;20291;-60
2023/04/06 05:09:26;;;;;;;8.03;5.00;;;0.20;99.90;;;;;;4145010;28;20675;-61
2023/04/06 05:11:27;;;;;;;7.73;5.20;;;0.10;99.90;;;;;;4146581;28;20283;-60
2023/04/06 05:13:30;;;;;;;9.70;5.13;;;0.20;99.90;;;;;;4156262;28;20332;-60
2023/04/06 05:15:37;;;;;;;8.73;4.50;;;0.20;99.90;;;;;;4144824;28;20778;-61
2023/04/06 05:17:39;;;;;;;7.97;4.73;;;0.10;99.90;;;;;;4136748;28;20290;-60
2023/04/06 05:19:40;;;;;;;8.07;5.00;;;0.10;99.90;;;;;;4131512;28;20567;-61
2023/04/06 05:21:41;;;;;;;7.77;5.30;;;0.00;99.90;;;;;;4127423;28;20280;-58
2023/04/06 05:23:42;;;;;;;7.37;4.60;;;0.00;99.90;;;;;;4132153;28;20303;-63
2023/04/06 05:25:44;;;;;;;6.30;4.73;;;0.00;99.90;;;;;;4132870;28;20280;-59
2023/04/06 05:27:45;;;;;;;8.63;4.63;;;-0.10;99.90;;;;;;4146091;28;20349;-65
2023/04/06 05:29:46;;;;;;;8.33;5.17;;;-0.10;99.90;;;;;;4146130;28;20321;-61
2023/04/06 05:31:47;;;;;;;9.27;5.13;;;-0.20;99.90;;;;;;4146413;28;20287;-59
2023/04/06 05:33:49;;;;;;;9.23;5.10;;;-0.10;99.90;;;;;;4145216;28;20271;-61
2023/04/06 05:35:50;;;;;;;11.07;6.47;;;-0.10;99.90;;;;;;4144215;28;20719;-63
2023/04/06 05:37:51;;;;;;;8.03;5.43;;;-0.20;99.90;;;;;;4146528;28;20317;-59
2023/04/06 05:39:52;;;;;;;10.07;6.10;;;-0.20;99.90;;;;;;4144782;28;20329;-57
2023/04/06 05:41:53;;;;;;;12.17;6.53;;;-0.20;99.90;;;;;;4145897;28;20275;-61
2023/04/06 05:43:55;;;;;;;13.40;6.23;;;-0.20;99.90;;;;;;4143832;28;20341;-59
2023/04/06 05:45:56;;;;;;;14.37;5.70;;;-0.10;99.90;;;;;;4145441;28;20342;-61
2023/04/06 05:47:57;;;;;;;11.37;5.87;;;-0.20;99.90;;;;;;4144169;28;20271;-62
2023/04/06 05:49:58;;;;;;;9.23;5.47;;;-0.10;99.90;;;;;;4144687;28;20337;-60
2023/04/06 05:52:00;;;;;;;7.90;4.83;;;-0.20;99.90;;;;;;4146706;28;20345;-63
2023/04/06 05:54:01;;;;;;;9.60;5.53;;;-0.20;99.90;;;;;;4145687;28;20699;-58
2023/04/06 05:56:03;;;;;;;10.07;5.60;;;-0.20;99.90;;;;;;4144686;28;20326;-66
2023/04/06 05:58:04;;;;;;;14.37;7.73;;;-0.30;99.90;;;;;;4158375;28;20823;-61
2023/04/06 06:00:08;;;;;;;11.37;6.40;;;-0.30;99.90;;;;;;4157319;28;20301;-60
2023/04/06 06:02:10;;;;;;;11.03;6.13;;;-0.30;99.90;;;;;;4147277;28;20346;-60
2023/04/06 06:04:11;;;;;;;13.07;6.83;;;-0.30;99.90;;;;;;4143948;28;20295;-60
2023/04/06 06:06:12;;;;;;;10.87;6.43;;;-0.40;99.90;;;;;;4143617;28;20742;-65
2023/04/06 06:08:14;;;;;;;11.03;6.83;;;-0.50;99.90;;;;;;4145649;28;20325;-62
2023/04/06 06:10:15;;;;;;;13.80;6.87;;;-0.50;99.90;;;;;;4144027;28;20271;-60
2023/04/06 06:12:16;;;;;;;13.23;6.20;;;-0.50;99.90;;;;;;4144716;28;20321;-58
2023/04/06 06:14:18;;;;;;;11.50;6.47;;;-0.40;99.90;;;;;;4147180;28;20275;-60
2023/04/06 06:16:19;;;;;;;11.30;6.50;;;-0.50;99.90;;;;;;4145199;28;20628;-57
2023/04/06 06:18:20;;;;;;;13.93;7.17;;;-0.60;99.90;;;;;;4143806;28;20275;-56
2023/04/06 06:20:22;;;;;;;9.00;5.83;;;-0.60;99.90;;;;;;4144789;28;20302;-59
2023/04/06 06:22:23;;;;;;;12.87;6.57;;;-0.60;99.90;;;;;;4144078;28;20724;-60
2023/04/06 06:24:25;;;;;;;11.17;5.93;;;-0.60;99.90;;;;;;4145118;28;20345;-57
2023/04/06 06:26:26;;;;;;;10.87;6.13;;;-0.60;99.90;;;;;;4143846;28;20797;-58
2023/04/06 06:28:27;;;;;;;9.97;5.43;;;-0.60;99.90;;;;;;4145192;28;20398;-58
2023/04/06 06:30:28;;;;;;;8.43;5.23;;;-0.60;99.90;;;;;;4142773;28;20264;-58
2023/04/06 06:32:29;;;;;;;8.80;5.50;;;-0.60;99.90;;;;;;4144736;28;20322;-57
2023/04/06 06:34:31;;;;;;;9.80;5.50;;;-0.60;99.90;;;;;;4127672;28;20307;-55
2023/04/06 06:36:32;;;;;;;8.20;5.63;;;-0.50;99.90;;;;;;4133739;28;20263;-60
2023/04/06 06:38:33;;;;;;;12.97;6.53;;;-0.50;99.90;;;;;;4144766;28;20716;-61
2023/04/06 06:40:34;;;;;;;9.50;5.07;;;-0.50;99.90;;;;;;4149919;28;20852;-63
2023/04/06 06:42:35;;;;;;;11.90;6.20;;;-0.40;99.90;;;;;;4145390;28;20357;-65
2023/04/06 06:44:36;;;;;;;10.67;6.10;;;-0.40;99.90;;;;;;4142564;28;20322;-61
2023/04/06 06:46:38;;;;;;;8.60;5.20;;;-0.40;99.90;;;;;;4148345;28;20279;-59
2023/04/06 06:48:39;;;;;;;15.60;8.60;;;-0.30;99.90;;;;;;4143409;28;20676;-61
2023/04/06 06:50:40;;;;;;;13.40;7.13;;;-0.30;99.90;;;;;;4143944;28;20310;-59
2023/04/06 06:52:42;;;;;;;13.73;7.13;;;-0.30;99.90;;;;;;4142143;28;20294;-63
2023/04/06 06:54:43;;;;;;;18.23;9.80;;;-0.30;99.90;;;;;;4137495;28;20264;-58
2023/04/06 06:56:45;;;;;;;12.40;7.73;;;-0.30;99.90;;;;;;4138764;28;20268;-58
2023/04/06 06:58:47;;;;;;;18.03;10.10;;;-0.40;99.90;;;;;;4144336;28;20263;-68
2023/04/06 07:00:48;;;;;;;14.87;7.87;;;-0.40;99.90;;;;;;4143256;28;20341;-62
2023/04/06 07:02:50;;;;;;;11.50;6.33;;;-0.40;99.90;;;;;;4144263;28;20279;-57
2023/04/06 07:04:51;;;;;;;12.43;7.00;;;-0.40;99.90;;;;;;4143259;28;20276;-59
2023/04/06 07:06:52;;;;;;;11.50;6.60;;;-0.40;99.90;;;;;;4143620;28;20702;-61
2023/04/06 07:08:53;;;;;;;14.17;7.63;;;-0.30;99.90;;;;;;4143783;28;20353;-59
2023/04/06 07:10:57;;;;;;;17.00;9.90;;;-0.40;99.90;;;;;;4138325;28;20315;-63
2023/04/06 07:12:58;;;;;;;8.33;5.43;;;-0.30;99.90;;;;;;4147837;28;20263;-59
2023/04/06 07:15:00;;;;;;;9.93;5.70;;;-0.30;99.90;;;;;;4143274;28;20636;-59
2023/04/06 07:17:01;;;;;;;10.70;6.50;;;-0.30;99.90;;;;;;4142762;28;20276;-59
2023/04/06 07:19:02;;;;;;;21.13;8.90;;;-0.20;99.90;;;;;;4143516;28;20263;-61
2023/04/06 07:21:04;;;;;;;13.50;7.40;;;-0.20;99.90;;;;;;4144266;28;20309;-59
2023/04/06 07:23:06;;;;;;;12.10;6.10;;;-0.20;99.90;;;;;;4126536;28;20291;-54
2023/04/06 07:25:07;;;;;;;8.50;5.00;;;-0.10;99.90;;;;;;4141863;28;20389;-59
2023/04/06 07:27:08;;;;;;;9.43;5.80;;;-0.10;99.90;;;;;;4142451;28;20279;-57
2023/04/06 07:29:10;;;;;;;9.20;4.73;;;-0.10;99.90;;;;;;4142385;28;20272;-59
2023/04/06 07:31:11;;;;;;;9.43;5.30;;;0.00;99.90;;;;;;4143789;28;20271;-60
2023/04/06 07:33:12;;;;;;;9.87;5.70;;;0.00;99.90;;;;;;4151527;28;20325;-61
2023/04/06 07:35:14;;;;;;;9.70;5.10;;;0.10;99.90;;;;;;4152306;28;20251;-59
2023/04/06 07:37:15;;;;;;;9.73;4.73;;;0.00;99.90;;;;;;4144247;28;20321;-60
2023/04/06 07:39:16;;;;;;;9.80;5.27;;;0.00;99.90;;;;;;4159668;28;20313;-59
2023/04/06 07:41:17;;;;;;;11.73;6.03;;;0.10;99.90;;;;;;4156373;28;20275;-59
2023/04/06 07:43:18;;;;;;;9.03;5.63;;;0.10;99.90;;;;;;4144102;28;20345;-58
2023/04/06 07:45:20;;;;;;;8.97;5.17;;;0.20;99.90;;;;;;4143689;28;20731;-61
2023/04/06 07:47:21;;;;;;;11.23;6.10;;;0.10;99.90;;;;;;4151456;28;20298;-60
2023/04/06 07:49:22;;;;;;;12.53;7.10;;;0.20;99.90;;;;;;4142572;28;20310;-58
2023/04/06 07:51:25;;;;;;;11.03;6.00;;;0.30;99.90;;;;;;4144085;28;20283;-56
2023/04/06 07:53:26;;;;;;;10.57;6.33;;;0.30;99.90;;;;;;4142584;28;20275;-56
2023/04/06 07:55:27;;;;;;;10.30;5.93;;;0.30;99.90;;;;;;4143284;28;20302;-61
2023/04/06 07:57:28;;;;;;;9.13;5.00;;;0.30;99.90;;;;;;4138707;28;20272;-58
2023/04/06 07:59:29;;;;;;;10.33;5.47;;;0.20;99.90;;;;;;4146727;28;20283;-57
2023/04/06 08:01:31;;;;;;;9.17;6.13;;;0.20;99.90;;;;;;4152724;28;20346;-61
2023/04/06 08:03:34;;;;;;;12.03;5.90;;;0.10;99.90;;;;;;4146460;28;20302;-60
2023/04/06 08:05:35;;;;;;;8.83;5.70;;;0.20;99.90;;;;;;4144454;28;20283;-60
2023/04/06 08:07:36;;;;;;;7.77;5.60;;;0.20;99.90;;;;;;4139987;28;20275;-59
2023/04/06 08:09:38;;;;;;;9.40;4.83;;;0.20;99.90;;;;;;4146483;28;20279;-60
2023/04/06 08:11:39;;;;;;;8.37;5.20;;;0.30;99.90;;;;;;4145496;28;20272;-59
2023/04/06 08:13:40;;;;;;;8.27;5.93;;;0.20;99.90;;;;;;4151222;28;20325;-59
2023/04/06 08:15:41;;;;;;;10.40;5.50;;;0.20;99.90;;;;;;4146099;28;20302;-56
2023/04/06 08:17:43;;;;;;;8.63;5.43;;;0.20;99.90;;;;;;4152855;28;20271;-59
2023/04/06 08:19:44;;;;;;;9.47;5.90;;;0.20;99.90;;;;;;4155666;28;20272;-61
2023/04/06 08:21:46;;;;;;;8.17;4.67;;;0.20;99.90;;;;;;4133040;28;20276;-59
2023/04/06 08:23:47;;;;;;;9.27;6.07;;;0.30;99.90;;;;;;4146307;28;20303;-59
2023/04/06 08:25:48;;;;;;;10.60;5.77;;;0.30;99.90;;;;;;4146665;28;20272;-57
2023/04/06 08:27:49;;;;;;;8.00;5.00;;;0.30;99.90;;;;;;4145553;28;20390;-58
2023/04/06 08:29:51;;;;;;;10.67;5.33;;;0.30;99.90;;;;;;4146222;28;20317;-58
2023/04/06 08:31:52;;;;;;;8.23;5.60;;;0.30;99.90;;;;;;4134578;28;20334;-61
2023/04/06 08:33:53;;;;;;;7.73;5.13;;;0.30;99.90;;;;;;4158950;28;20290;-60
2023/04/06 08:35:54;;;;;;;10.00;5.97;;;0.20;99.90;;;;;;4161448;28;20321;-58
2023/04/06 08:37:57;;;;;;;11.40;6.07;;;0.30;99.90;;;;;;4150700;28;20247;-65
2023/04/06 08:39:58;;;;;;;7.63;4.93;;;0.30;99.90;;;;;;4144208;28;20644;-59
2023/04/06 08:42:02;;;;;;;9.43;5.50;;;0.30;99.90;;;;;;4144753;28;20271;-59
2023/04/06 08:44:04;;;;;;;8.83;5.30;;;0.30;99.90;;;;;;4146021;28;20307;-59
2023/04/06 08:46:05;;;;;;;8.70;5.17;;;0.40;99.90;;;;;;4142509;28;20271;-59
2023/04/06 08:48:08;;;;;;;14.73;7.67;;;0.30;99.90;;;;;;4146271;28;20663;-59
2023/04/06 08:50:13;;;;;;;10.90;6.73;;;0.50;99.90;;;;;;4145368;28;20322;-59
2023/04/06 08:52:18;;;;;;;10.30;6.67;;;0.50;99.90;;;;;;4146662;28;20517;-60
2023/04/06 08:54:19;;;;;;;9.57;6.40;;;0.60;99.90;;;;;;4145320;28;20283;-60
2023/04/06 08:56:22;;;;;;;11.80;7.13;;;0.70;99.90;;;;;;4146050;28;21067;-57
2023/04/06 08:58:25;;;;;;;11.20;6.47;;;0.80;99.90;;;;;;4144223;28;20280;-58
2023/04/06 09:00:28;;;;;;;10.97;6.07;;;0.80;99.90;;;;;;4146608;28;20287;-59
2023/04/06 09:02:29;;;;;;;9.20;5.77;;;0.90;99.90;;;;;;4149087;28;20287;-58
2023/04/06 09:04:32;;;;;;;7.93;5.00;;;0.90;99.90;;;;;;4151471;28;20337;-58
2023/04/06 09:06:33;;;;;;;8.17;5.13;;;0.80;99.90;;;;;;4150656;28;20343;-61
2023/04/06 09:08:36;;;;;;;9.00;5.13;;;0.70;99.90;;;;;;4153838;28;20324;-59
2023/04/06 09:10:40;;;;;;;8.83;5.00;;;0.70;99.90;;;;;;4149206;28;20798;-57
2023/04/06 09:12:41;;;;;;;9.13;4.87;;;0.70;99.90;;;;;;4145446;28;20329;-60
2023/04/06 09:14:43;;;;;;;8.70;5.13;;;0.80;99.90;;;;;;4145284;28;20243;-58
2023/04/06 09:16:45;;;;;;;7.50;5.03;;;0.70;99.90;;;;;;4145566;28;20267;-57
2023/04/06 09:18:47;;;;;;;10.77;4.97;;;0.70;99.90;;;;;;4145642;28;20334;-59
2023/04/06 09:20:57;;;;;;;8.73;4.57;;;0.60;99.90;;;;;;4145798;28;20349;-57
2023/04/06 09:22:59;;;;;;;5.55;4.10;;;0.50;99.90;;;;;;4151623;28;21060;-60
2023/04/06 09:25:00;;;;;;;6.70;4.90;;;0.60;99.90;;;;;;4153460;28;20057;-59
2023/04/06 09:27:01;;;;;;;12.47;5.70;;;0.50;99.90;;;;;;4147117;28;20279;-55
2023/04/06 09:29:03;;;;;;;7.40;4.87;;;0.60;99.90;;;;;;4154478;28;20310;-59
2023/04/06 09:31:04;;;;;;;8.43;4.67;;;0.70;99.90;;;;;;4156156;28;20283;-58
2023/04/06 09:33:06;;;;;;;9.10;5.73;;;0.70;99.90;;;;;;4153482;28;20267;-59
2023/04/06 09:35:08;;;;;;;7.93;4.70;;;0.80;99.90;;;;;;4142239;28;20263;-56
2023/04/06 09:37:18;;;;;;;5.83;4.00;;;0.80;99.90;;;;;;4146734;28;20700;-58
2023/04/06 09:39:24;;;;;;;6.70;4.47;;;0.70;99.90;;;;;;4145846;28;20279;-57
2023/04/06 09:41:26;;;;;;;8.47;5.13;;;0.80;99.90;;;;;;4144177;28;20330;-55
2023/04/06 09:43:28;;;;;;;7.10;4.20;;;0.80;99.90;;;;;;4146453;28;20283;-58
2023/04/06 09:45:30;;;;;;;9.50;4.37;;;0.80;99.90;;;;;;4142922;28;20295;-64
2023/04/06 09:47:32;;;;;;;6.17;3.97;;;0.80;99.90;;;;;;4154858;28;20271;-66
2023/04/06 09:49:35;;;;;;;7.37;4.30;;;0.80;99.90;;;;;;4142383;28;20858;-64
2023/04/06 09:51:41;;;;;;;10.53;5.87;;;0.80;99.90;;;;;;4144929;28;20834;-60
2023/04/06 09:53:44;;;;;;;10.90;6.43;;;0.80;99.90;;;;;;4141859;28;20279;-66
2023/04/06 09:55:50;;;;;;;9.17;5.13;;;0.90;99.90;;;;;;4136151;28;20671;-59
2023/04/06 09:57:55;;;;;;;7.53;5.17;;;1.00;99.90;;;;;;4152346;28;20279;-56
2023/04/06 10:00:11;;;;;;;9.07;5.90;;;1.10;99.90;;;;;;4155505;28;20262;-61
2023/04/06 10:02:32;;;;;;;8.40;5.87;;;1.20;99.90;;;;;;4158854;28;20271;-62
2023/04/06 10:04:33;;;;;;;7.67;4.70;;;1.10;99.90;;;;;;4132370;28;20344;-61
2023/04/06 10:06:35;;;;;;;7.00;4.60;;;1.20;99.90;;;;;;4158808;28;20259;-63
2023/04/06 10:08:42;;;;;;;8.33;5.57;;;1.30;99.90;;;;;;4149968;28;20279;-59
2023/04/06 10:10:44;;;;;;;9.00;4.53;;;1.40;99.90;;;;;;4157142;28;20324;-59
2023/04/06 10:12:48;;;;;;;9.57;5.07;;;1.50;99.90;;;;;;4147781;28;20782;-60
2023/04/06 10:14:50;;;;;;;7.67;5.37;;;1.50;99.90;;;;;;4160283;28;20290;-57
2023/04/06 10:16:51;;;;;;;7.23;4.33;;;1.60;99.90;;;;;;4154698;28;20309;-60
2023/04/06 10:19:00;;;;;;;6.90;5.13;;;1.70;99.90;;;;;;4144930;28;20345;-60
2023/04/06 10:21:15;;;;;;;9.03;5.33;;;1.80;99.90;;;;;;4143239;28;20267;-59
2023/04/06 10:23:36;;;;;;;6.97;4.87;;;1.90;99.90;;;;;;4151266;28;20278;-58
2023/04/06 10:25:38;;;;;;;10.13;4.57;;;2.10;99.90;;;;;;4144678;28;20822;-60
2023/04/06 10:27:39;;;;;;;9.43;5.30;;;2.20;99.90;;;;;;4149154;28;20342;-60
2023/04/06 10:29:51;;;;;;;6.53;3.53;;;2.30;99.90;;;;;;4150383;28;20815;-59
2023/04/06 10:31:52;;;;;;;4.43;3.30;;;2.30;99.90;;;;;;4157544;28;20279;-62
2023/04/06 10:34:00;;;;;;;4.27;3.30;;;2.30;99.90;;;;;;4144141;28;20272;-62
2023/04/06 10:36:21;;;;;;;5.43;3.67;;;2.30;99.90;;;;;;4134177;28;20276;-59
2023/04/06 10:38:38;;;;;;;3.45;2.63;;;2.30;99.90;;;;;;4135345;28;20341;-61